Seattle, Washington
Traffic Map
Current Weather Conditions
Seattle, Washington
Broken Clouds
Broken Clouds

Feels Like: 6°
Wind Chill: Ceiling: 6000
Heat Index: Visibility: 10mi
Dew Point: Wind: 12mph
Humidity: 89% Direction: 160° (SSE)
Pressure: 29.71in Gusts: 0mph
Raw Report DataKBFI 240953Z 16010KT 10SM SCT044 BKN060 09/07 A2971 RMK AO2 RAE02 SLP060 P0000 T00890072
Traffic Incident Summary
Active as of:
Severity:
Category:
InformationThere was an issue retrieving the traffic information for this location. Please try a different location or try again shortly.
Advertisements